Time;durP1;ratioP1;P1;durP2;ratioP2;P2;SDS_P1;SDS_P2;PMS_P1;PMS_P2;Temp;Humidity;BMP_temperature;BMP_pressure;BME280_temperature;BME280_humidity;BME280_pressure;Samples;Min_cycle;Max_cycle;Signal;HPM_P1;HPM_P2
2022/08/19 00:01:52;;;;;;;13.50;12.10;;;19.00;99.90;;;;;;5035074;28;20212;-65
2022/08/19 00:04:20;;;;;;;13.40;12.10;;;18.90;99.90;;;;;;5034584;28;20226;-65
2022/08/19 00:06:46;;;;;;;15.47;12.93;;;18.90;99.90;;;;;;5034779;28;20661;-66
2022/08/19 00:09:16;;;;;;;15.17;12.90;;;18.90;99.90;;;;;;5034679;28;20182;-66
2022/08/19 00:11:43;;;;;;;14.60;12.83;;;18.90;99.90;;;;;;5034645;28;20212;-66
2022/08/19 00:14:11;;;;;;;17.77;13.43;;;19.00;99.90;;;;;;5034313;28;20265;-64
2022/08/19 00:16:41;;;;;;;14.77;13.20;;;19.00;99.90;;;;;;5034833;28;20175;-65
2022/08/19 00:19:07;;;;;;;15.57;13.97;;;19.00;99.90;;;;;;5033505;28;20175;-66
2022/08/19 00:21:38;;;;;;;15.00;13.40;;;18.90;99.90;;;;;;5035058;28;20178;-65
2022/08/19 00:24:03;;;;;;;20.47;14.13;;;18.80;99.90;;;;;;5033898;28;20241;-65
2022/08/19 00:26:29;;;;;;;14.57;13.07;;;18.80;99.90;;;;;;5034257;28;20179;-64
2022/08/19 00:28:55;;;;;;;14.57;13.07;;;18.80;99.90;;;;;;5034615;28;20174;-66
2022/08/19 00:31:20;;;;;;;16.27;14.00;;;18.80;99.90;;;;;;5034167;28;20722;-64
2022/08/19 00:33:50;;;;;;;15.80;14.20;;;18.70;99.90;;;;;;5034146;28;20290;-65
2022/08/19 00:36:17;;;;;;;17.00;14.37;;;18.70;99.90;;;;;;5034030;28;20199;-64
2022/08/19 00:38:42;;;;;;;15.03;13.50;;;18.70;99.90;;;;;;5034320;28;20175;-66
2022/08/19 00:41:13;;;;;;;15.23;13.73;;;18.70;99.90;;;;;;5033840;28;20655;-65
2022/08/19 00:43:40;;;;;;;16.10;14.40;;;18.70;99.90;;;;;;5033958;28;20238;-66
2022/08/19 00:46:05;;;;;;;17.47;14.60;;;18.70;99.90;;;;;;5034029;28;20186;-66
2022/08/19 00:48:33;;;;;;;16.23;13.37;;;18.60;99.90;;;;;;5034113;28;20369;-66
2022/08/19 00:50:59;;;;;;;15.10;13.70;;;18.60;99.90;;;;;;5033917;28;20172;-66
2022/08/19 00:53:30;;;;;;;16.77;15.00;;;18.60;99.90;;;;;;5033580;28;20286;-66
2022/08/19 00:55:59;;;;;;;15.37;13.63;;;18.50;99.90;;;;;;5034181;28;20230;-66
2022/08/19 00:58:28;;;;;;;20.30;13.83;;;18.60;99.90;;;;;;5033624;28;20170;-67
2022/08/19 01:00:54;;;;;;;17.67;13.50;;;18.50;99.90;;;;;;5033864;28;20242;-65
2022/08/19 01:03:23;;;;;;;13.93;12.53;;;18.60;99.90;;;;;;5033435;28;20761;-66
2022/08/19 01:05:50;;;;;;;16.90;13.50;;;18.50;99.90;;;;;;5032740;28;20187;-65
2022/08/19 01:08:18;;;;;;;15.80;14.13;;;18.40;99.90;;;;;;5033400;28;20184;-66
2022/08/19 01:10:56;;;;;;;16.37;14.00;;;18.40;99.90;;;;;;5034012;28;20179;-66
2022/08/19 01:13:26;;;;;;;16.00;13.40;;;18.40;99.90;;;;;;5033419;28;20207;-66
2022/08/19 01:16:03;;;;;;;14.93;13.53;;;18.40;99.90;;;;;;5033424;28;20735;-66
2022/08/19 01:18:30;;;;;;;16.50;13.93;;;18.30;99.90;;;;;;5033762;28;20213;-66
2022/08/19 01:21:01;;;;;;;14.90;13.37;;;18.30;99.90;;;;;;5033219;28;20676;-66
2022/08/19 01:23:42;;;;;;;15.63;14.00;;;18.30;99.90;;;;;;5032987;28;20665;-65
2022/08/19 01:26:14;;;;;;;20.73;14.17;;;18.20;99.90;;;;;;5033205;28;20167;-66
2022/08/19 01:28:41;;;;;;;17.87;15.73;;;18.10;99.90;;;;;;5033605;28;20199;-65
2022/08/19 01:31:14;;;;;;;24.70;15.80;;;18.10;99.90;;;;;;5032948;28;20193;-67
2022/08/19 01:33:39;;;;;;;25.23;15.83;;;18.10;99.90;;;;;;5032956;28;20626;-65
2022/08/19 01:36:12;;;;;;;22.07;15.23;;;18.10;99.90;;;;;;5032875;28;20207;-64
2022/08/19 01:38:42;;;;;;;23.07;16.93;;;18.00;99.90;;;;;;5033078;28;20202;-65
2022/08/19 01:41:08;;;;;;;18.37;16.47;;;18.00;99.90;;;;;;5032888;28;20216;-66
2022/08/19 01:43:34;;;;;;;18.57;16.53;;;18.00;99.90;;;;;;5032387;28;20215;-65
2022/08/19 01:46:00;;;;;;;22.87;17.90;;;18.00;99.90;;;;;;5033044;28;20179;-66
2022/08/19 01:48:26;;;;;;;23.70;17.67;;;18.00;99.90;;;;;;5032898;28;20183;-66
2022/08/19 01:50:52;;;;;;;20.67;18.53;;;18.00;99.90;;;;;;5032959;28;20180;-66
2022/08/19 01:53:17;;;;;;;25.20;19.53;;;17.90;99.90;;;;;;5032618;28;20203;-65
2022/08/19 01:55:43;;;;;;;23.00;19.27;;;17.90;99.90;;;;;;5032726;28;20203;-66
2022/08/19 01:58:14;;;;;;;21.67;19.40;;;17.90;99.90;;;;;;5033075;28;20203;-66
2022/08/19 02:00:40;;;;;;;23.57;21.07;;;17.90;99.90;;;;;;5033219;28;20172;-65
2022/08/19 02:03:06;;;;;;;24.03;21.43;;;17.80;99.90;;;;;;5031689;28;20258;-65
2022/08/19 02:05:32;;;;;;;24.80;20.67;;;17.80;99.90;;;;;;5032349;28;20175;-66
2022/08/19 02:07:58;;;;;;;24.03;20.73;;;17.80;99.90;;;;;;5032472;28;20229;-67
2022/08/19 02:10:24;;;;;;;25.67;21.30;;;17.80;99.90;;;;;;5032170;28;20179;-65
2022/08/19 02:12:50;;;;;;;30.10;23.40;;;17.80;99.90;;;;;;5032332;28;20290;-65
2022/08/19 02:15:21;;;;;;;26.10;22.57;;;17.80;99.90;;;;;;5031914;28;20291;-65
2022/08/19 02:17:47;;;;;;;29.10;21.90;;;17.80;99.90;;;;;;5032754;28;20218;-65
2022/08/19 02:20:13;;;;;;;26.37;23.57;;;17.80;99.90;;;;;;5032227;28;20194;-64
2022/08/19 02:22:42;;;;;;;27.73;23.27;;;17.80;99.90;;;;;;5032133;28;20680;-65
2022/08/19 02:25:09;;;;;;;27.47;23.83;;;17.70;99.90;;;;;;5032187;28;20524;-67
2022/08/19 02:27:35;;;;;;;28.30;24.70;;;17.70;99.90;;;;;;5031983;28;20187;-66
2022/08/19 02:30:01;;;;;;;27.93;23.77;;;17.70;99.90;;;;;;5032415;28;20171;-65
2022/08/19 02:32:27;;;;;;;30.50;26.37;;;17.70;99.90;;;;;;5031945;28;20236;-66
2022/08/19 02:34:53;;;;;;;32.93;25.83;;;17.70;99.90;;;;;;5031780;28;20199;-67
2022/08/19 02:40:03;;;;;;;33.57;25.60;;;17.70;99.90;;;;;;5032153;28;20179;-66
2022/08/19 02:42:29;;;;;;;32.50;25.20;;;17.70;99.90;;;;;;5031653;28;20206;-66
2022/08/19 02:44:55;;;;;;;32.53;25.83;;;17.70;99.90;;;;;;5031855;28;20171;-66
2022/08/19 02:47:21;;;;;;;32.27;25.67;;;17.70;99.90;;;;;;5031408;28;20180;-65
2022/08/19 02:49:49;;;;;;;30.03;25.90;;;17.70;99.90;;;;;;5032145;28;20746;-66
2022/08/19 02:52:15;;;;;;;32.63;27.20;;;17.70;99.90;;;;;;5031587;28;20286;-66
2022/08/19 02:54:41;;;;;;;35.27;28.83;;;17.70;99.90;;;;;;5031340;28;20294;-66
2022/08/19 02:57:07;;;;;;;35.77;27.10;;;17.70;99.90;;;;;;5031471;28;20202;-66
2022/08/19 02:59:33;;;;;;;34.13;27.73;;;17.60;99.90;;;;;;5031822;28;20221;-66
2022/08/19 03:01:58;;;;;;;39.87;29.27;;;17.60;99.90;;;;;;5031636;28;20180;-66
2022/08/19 03:04:24;;;;;;;41.20;31.03;;;17.70;99.90;;;;;;5030881;28;20215;-66
2022/08/19 03:06:50;;;;;;;34.50;29.37;;;17.60;99.90;;;;;;5031722;28;20189;-66
2022/08/19 03:09:18;;;;;;;35.53;29.87;;;17.60;99.90;;;;;;5031218;28;20278;-65
2022/08/19 03:11:43;;;;;;;35.87;29.37;;;17.60;99.90;;;;;;5031947;28;20180;-66
2022/08/19 03:14:10;;;;;;;40.03;29.47;;;17.60;99.90;;;;;;5030841;28;20203;-66
2022/08/19 03:16:43;;;;;;;35.67;29.53;;;17.50;99.90;;;;;;5031707;28;20175;-66
2022/08/19 03:19:08;;;;;;;42.83;32.47;;;17.50;99.90;;;;;;5031236;28;20541;-65
2022/08/19 03:21:34;;;;;;;42.17;32.93;;;17.50;99.90;;;;;;5031423;28;20164;-65
2022/08/19 03:24:03;;;;;;;44.53;31.77;;;17.50;99.90;;;;;;5031209;28;20183;-65
2022/08/19 03:26:29;;;;;;;40.63;34.07;;;17.50;99.90;;;;;;5031410;28;20345;-64
2022/08/19 03:28:55;;;;;;;40.80;33.73;;;17.50;99.90;;;;;;5031522;28;20541;-65
2022/08/19 03:31:23;;;;;;;44.80;34.67;;;17.50;99.90;;;;;;5031076;28;20187;-64
2022/08/19 03:33:50;;;;;;;44.83;33.67;;;17.40;99.90;;;;;;5031005;28;20187;-66
2022/08/19 03:36:24;;;;;;;42.13;33.93;;;17.40;99.90;;;;;;5031100;28;20747;-64
2022/08/19 03:38:54;;;;;;;42.77;33.97;;;17.40;99.90;;;;;;5031257;28;20187;-64
2022/08/19 03:41:31;;;;;;;42.33;33.70;;;17.40;99.90;;;;;;5031293;28;20238;-65
2022/08/19 03:43:58;;;;;;;44.20;35.33;;;17.40;99.90;;;;;;5030652;28;20214;-65
2022/08/19 03:46:29;;;;;;;45.93;35.67;;;17.30;99.90;;;;;;5031286;28;20171;-66
2022/08/19 03:48:57;;;;;;;47.17;36.20;;;17.30;99.90;;;;;;5031105;28;20187;-65
2022/08/19 03:51:33;;;;;;;49.47;38.13;;;17.30;99.90;;;;;;5031091;28;20190;-65
2022/08/19 03:54:01;;;;;;;46.13;36.07;;;17.30;99.90;;;;;;5030643;28;20537;-65
2022/08/19 03:56:28;;;;;;;46.27;35.97;;;17.30;99.90;;;;;;5030992;28;20577;-64
2022/08/19 03:58:55;;;;;;;48.60;35.70;;;17.30;99.90;;;;;;5031285;28;20218;-64
2022/08/19 04:01:23;;;;;;;44.97;35.63;;;17.30;99.90;;;;;;5030619;28;20584;-64
2022/08/19 04:03:49;;;;;;;48.53;37.17;;;17.30;99.90;;;;;;5030747;28;20219;-64
2022/08/19 04:06:42;;;;;;;52.90;37.63;;;17.30;99.90;;;;;;5031150;28;20214;-64
2022/08/19 04:09:10;;;;;;;48.07;38.47;;;17.30;99.90;;;;;;5030159;28;20195;-64
2022/08/19 04:11:41;;;;;;;49.13;37.23;;;17.30;99.90;;;;;;5030720;28;20188;-64
2022/08/19 04:14:12;;;;;;;53.43;38.63;;;17.30;99.90;;;;;;5030805;28;20195;-64
2022/08/19 04:16:38;;;;;;;51.07;37.37;;;17.30;99.90;;;;;;5030880;28;20179;-64
2022/08/19 04:19:04;;;;;;;61.10;39.50;;;17.20;99.90;;;;;;5030996;28;20175;-65
2022/08/19 04:21:30;;;;;;;51.20;38.93;;;17.20;99.90;;;;;;5030568;28;20274;-64
2022/08/19 04:23:57;;;;;;;61.93;41.40;;;17.20;99.90;;;;;;5029760;28;20612;-64
2022/08/19 04:26:26;;;;;;;52.23;38.57;;;17.20;99.90;;;;;;5033602;28;20242;-65
2022/08/19 04:28:53;;;;;;;56.43;38.53;;;17.20;99.90;;;;;;5034449;28;20215;-65
2022/08/19 04:31:25;;;;;;;56.10;38.13;;;17.20;99.90;;;;;;5033868;28;20247;-66
2022/08/19 04:33:58;;;;;;;57.53;37.73;;;17.20;99.90;;;;;;5034033;28;20188;-66
2022/08/19 04:36:28;;;;;;;54.20;39.00;;;17.20;99.90;;;;;;5033070;28;20683;-65
2022/08/19 04:39:01;;;;;;;59.33;40.47;;;17.20;99.90;;;;;;5033894;28;20555;-65
2022/08/19 04:44:12;;;;;;;62.33;41.47;;;17.20;99.90;;;;;;5033321;28;20260;-65
2022/08/19 04:46:38;;;;;;;69.03;40.37;;;17.20;99.90;;;;;;5034114;28;20202;-65
2022/08/19 04:49:05;;;;;;;62.23;43.00;;;17.20;99.90;;;;;;5032800;28;20623;-67
2022/08/19 04:51:33;;;;;;;57.67;42.63;;;17.20;99.90;;;;;;5052032;28;20185;-64
2022/08/19 04:54:00;;;;;;;60.97;42.80;;;17.20;99.90;;;;;;5053379;28;20556;-65
2022/08/19 04:56:26;;;;;;;63.90;43.57;;;17.30;99.90;;;;;;5053548;28;20260;-65
2022/08/19 04:58:53;;;;;;;60.83;41.87;;;17.30;99.90;;;;;;5053719;28;20179;-65
2022/08/19 05:01:28;;;;;;;64.00;42.30;;;17.20;99.90;;;;;;5041809;28;20718;-66
2022/08/19 05:03:54;;;;;;;67.53;43.20;;;17.30;99.90;;;;;;5033159;28;20194;-66
2022/08/19 05:06:21;;;;;;;63.40;41.33;;;17.30;99.90;;;;;;5033206;28;20198;-66
2022/08/19 05:08:47;;;;;;;63.57;42.87;;;17.30;99.90;;;;;;5033277;28;20186;-65
2022/08/19 05:11:24;;;;;;;54.93;40.73;;;17.40;99.90;;;;;;5033001;28;20175;-66
2022/08/19 05:13:50;;;;;;;59.67;41.13;;;17.50;99.90;;;;;;5033026;28;20278;-67
2022/08/19 05:16:18;;;;;;;59.73;39.63;;;17.60;99.90;;;;;;5032706;28;20203;-68
2022/08/19 05:24:14;;;;;;;58.67;40.77;;;17.80;99.90;;;;;;5032099;28;20213;-66
2022/08/19 05:26:47;;;;;;;48.93;37.87;;;17.80;99.90;;;;;;5033092;28;20186;-67
2022/08/19 05:29:15;;;;;;;53.27;36.03;;;18.00;99.90;;;;;;5032925;28;20211;-67
2022/08/19 05:31:41;;;;;;;52.87;37.77;;;18.00;99.90;;;;;;5033286;28;20175;-68
2022/08/19 05:34:07;;;;;;;50.20;37.43;;;18.20;99.90;;;;;;5032465;28;20565;-67
2022/08/19 05:36:39;;;;;;;47.00;34.60;;;18.30;99.90;;;;;;5029941;28;20665;-66
2022/08/19 05:39:11;;;;;;;43.07;34.20;;;18.40;99.90;;;;;;5032965;28;20652;-66
2022/08/19 05:41:41;;;;;;;45.40;33.60;;;18.50;99.90;;;;;;5032821;28;20179;-66
2022/08/19 05:44:08;;;;;;;42.73;32.00;;;18.60;99.90;;;;;;5030209;28;20226;-66
2022/08/19 05:46:35;;;;;;;41.97;31.07;;;18.70;99.90;;;;;;5032490;28;20199;-65
2022/08/19 05:49:00;;;;;;;40.07;32.67;;;18.80;99.90;;;;;;5032475;28;20187;-66
2022/08/19 05:51:26;;;;;;;39.90;31.10;;;19.00;99.90;;;;;;5031999;28;20641;-67
2022/08/19 05:53:52;;;;;;;41.80;33.00;;;19.20;99.90;;;;;;5032110;28;20435;-66
2022/08/19 05:56:18;;;;;;;41.10;30.60;;;19.40;99.90;;;;;;5032294;28;20210;-66
2022/08/19 05:58:45;;;;;;;34.47;28.00;;;19.40;99.90;;;;;;5032159;28;20179;-66
2022/08/19 06:01:16;;;;;;;35.17;29.97;;;19.60;99.90;;;;;;5032100;28;20194;-66
2022/08/19 06:03:41;;;;;;;32.70;28.13;;;19.70;99.90;;;;;;5032284;28;20199;-66
2022/08/19 06:06:10;;;;;;;38.50;31.40;;;19.70;99.90;;;;;;5032139;28;20191;-66
2022/08/19 06:08:37;;;;;;;35.30;27.77;;;19.70;99.90;;;;;;5032749;28;20607;-66
2022/08/19 06:11:16;;;;;;;32.63;28.17;;;19.70;99.90;;;;;;5032348;28;20183;-67
2022/08/19 06:13:42;;;;;;;36.60;29.67;;;19.70;99.90;;;;;;5032210;28;20602;-66
2022/08/19 06:16:08;;;;;;;36.43;30.00;;;19.70;99.90;;;;;;5031824;28;20217;-66
2022/08/19 06:18:34;;;;;;;37.90;30.87;;;19.70;99.90;;;;;;5032326;28;20641;-67
2022/08/19 06:21:03;;;;;;;36.40;29.80;;;19.90;99.90;;;;;;5032110;28;20174;-65
2022/08/19 06:23:29;;;;;;;36.77;29.87;;;20.00;99.90;;;;;;5031351;28;20708;-66
2022/08/19 06:25:54;;;;;;;34.17;29.67;;;20.20;99.90;;;;;;5030764;28;20314;-66
2022/08/19 06:28:20;;;;;;;34.50;27.87;;;20.20;99.90;;;;;;5031565;28;20184;-66
2022/08/19 06:30:46;;;;;;;36.07;28.23;;;20.30;99.90;;;;;;5032034;28;20187;-65
2022/08/19 06:33:11;;;;;;;35.57;28.43;;;20.20;99.90;;;;;;5031841;28;20242;-65
2022/08/19 06:35:41;;;;;;;36.20;29.80;;;20.20;99.90;;;;;;5032004;28;20211;-66
2022/08/19 06:38:06;;;;;;;34.67;28.43;;;20.10;99.90;;;;;;5031922;28;20206;-66
2022/08/19 06:40:32;;;;;;;34.00;29.33;;;19.90;99.90;;;;;;5032112;28;20226;-65
2022/08/19 06:42:59;;;;;;;36.10;28.77;;;19.90;99.90;;;;;;5031704;28;20199;-65
2022/08/19 06:45:25;;;;;;;34.07;27.90;;;20.00;99.90;;;;;;5031624;28;20207;-66
2022/08/19 06:47:55;;;;;;;37.13;29.13;;;19.90;99.90;;;;;;5031501;28;20221;-66
2022/08/19 06:50:24;;;;;;;42.47;30.27;;;19.90;99.90;;;;;;5031949;28;20176;-66
2022/08/19 06:52:49;;;;;;;36.87;29.80;;;19.80;99.90;;;;;;5031705;28;20187;-64
2022/08/19 06:55:15;;;;;;;36.20;29.70;;;19.70;99.90;;;;;;5031369;28;20334;-67
2022/08/19 06:57:42;;;;;;;39.33;29.80;;;19.60;99.90;;;;;;5031802;28;20187;-66
2022/08/19 07:00:13;;;;;;;40.37;30.07;;;19.60;99.90;;;;;;5030556;28;20176;-65
2022/08/19 07:02:40;;;;;;;44.13;31.23;;;19.50;99.90;;;;;;5031813;28;20191;-65
2022/08/19 07:05:07;;;;;;;47.07;36.23;;;19.40;99.90;;;;;;5030890;28;20274;-67
2022/08/19 07:07:32;;;;;;;47.30;35.70;;;19.30;99.90;;;;;;5031506;28;20583;-64
2022/08/19 07:09:58;;;;;;;48.57;33.50;;;19.20;99.90;;;;;;5031624;28;20283;-67
2022/08/19 07:12:24;;;;;;;48.17;35.50;;;19.20;99.90;;;;;;5031509;28;20175;-67
2022/08/19 07:14:50;;;;;;;47.47;36.60;;;19.20;99.90;;;;;;5031285;28;20668;-65
2022/08/19 07:17:15;;;;;;;51.37;35.80;;;19.40;99.90;;;;;;5031493;28;20195;-66
2022/08/19 07:19:42;;;;;;;45.87;35.03;;;19.50;99.90;;;;;;5031383;28;20266;-65
2022/08/19 07:22:09;;;;;;;53.83;36.27;;;19.60;99.90;;;;;;5031903;28;20168;-66
2022/08/19 07:24:36;;;;;;;44.60;33.27;;;19.70;99.90;;;;;;5030850;28;20657;-66
2022/08/19 07:27:04;;;;;;;46.67;36.73;;;19.80;99.90;;;;;;5031345;28;20206;-65
2022/08/19 07:29:33;;;;;;;53.90;36.10;;;19.90;99.90;;;;;;5031226;28;20198;-66
2022/08/19 07:32:00;;;;;;;44.90;34.17;;;20.00;99.90;;;;;;5031287;28;20223;-66
2022/08/19 07:34:27;;;;;;;48.50;35.03;;;20.00;99.90;;;;;;5030903;28;20207;-67
2022/08/19 07:36:54;;;;;;;48.50;34.17;;;20.10;99.90;;;;;;5031332;28;20183;-67
2022/08/19 07:39:23;;;;;;;43.03;32.77;;;20.20;99.90;;;;;;5031360;28;20254;-66
2022/08/19 07:41:50;;;;;;;47.53;35.03;;;20.40;99.90;;;;;;5031178;28;20637;-66
2022/08/19 07:44:18;;;;;;;50.43;35.90;;;20.50;99.90;;;;;;5029538;28;20226;-66
2022/08/19 07:46:46;;;;;;;47.97;36.50;;;20.60;99.90;;;;;;5031390;28;20198;-66
2022/08/19 07:49:18;;;;;;;55.27;38.77;;;20.70;99.90;;;;;;5031187;28;20188;-65
2022/08/19 07:51:52;;;;;;;51.80;36.80;;;20.70;99.90;;;;;;5030956;28;20172;-64
2022/08/19 07:54:19;;;;;;;54.83;37.73;;;20.70;99.90;;;;;;5030730;28;20219;-65
2022/08/19 07:56:45;;;;;;;53.20;39.70;;;21.00;99.90;;;;;;5030909;28;20191;-65
2022/08/19 07:59:11;;;;;;;49.97;34.67;;;21.50;99.90;;;;;;5031274;28;20180;-65
2022/08/19 08:01:39;;;;;;;51.83;38.05;;;21.80;99.90;;;;;;5034457;28;20229;-65
2022/08/19 08:09:39;;;;;;;42.45;32.85;;;22.60;99.90;;;;;;5034769;28;20190;-65
2022/08/19 08:12:11;;;;;;;44.05;33.83;;;22.70;99.90;;;;;;5034857;28;20186;-66
2022/08/19 08:14:41;;;;;;;44.80;32.17;;;23.00;99.90;;;;;;5034506;28;20668;-65
2022/08/19 08:17:08;;;;;;;45.05;31.70;;;23.30;99.90;;;;;;5034878;28;20180;-66
2022/08/19 08:19:35;;;;;;;43.47;31.50;;;23.40;99.90;;;;;;5034609;28;20189;-65
2022/08/19 08:22:01;;;;;;;41.63;29.15;;;23.40;99.90;;;;;;5034222;28;20669;-65
2022/08/19 08:24:30;;;;;;;42.97;30.35;;;23.40;99.90;;;;;;5034191;28;20337;-65
2022/08/19 08:26:58;;;;;;;48.28;31.48;;;23.20;99.90;;;;;;5034602;28;20207;-65
2022/08/19 08:29:25;;;;;;;42.38;29.55;;;23.00;99.90;;;;;;5034493;28;20172;-63
2022/08/19 08:31:51;;;;;;;47.53;31.08;;;23.00;99.90;;;;;;5034490;28;20168;-65
2022/08/19 08:34:16;;;;;;;38.75;26.95;;;22.90;99.90;;;;;;5034188;28;20188;-65
2022/08/19 08:36:45;;;;;;;40.95;27.83;;;23.00;99.90;;;;;;5034573;28;20167;-65
2022/08/19 08:39:16;;;;;;;37.78;28.75;;;23.10;99.90;;;;;;5034350;28;20187;-64
2022/08/19 08:42:05;;;;;;;43.00;28.27;;;23.20;99.90;;;;;;5034263;28;20163;-65
2022/08/19 08:44:57;;;;;;;38.25;27.50;;;23.20;99.90;;;;;;5033834;28;20207;-65
2022/08/19 08:47:25;;;;;;;41.35;27.90;;;23.30;99.90;;;;;;5034197;28;20176;-65
2022/08/19 08:50:18;;;;;;;37.45;25.58;;;23.20;99.90;;;;;;5034414;28;20652;-65
2022/08/19 08:52:52;;;;;;;34.92;24.63;;;23.30;99.90;;;;;;5034408;28;20192;-65
2022/08/19 08:55:21;;;;;;;30.33;22.35;;;23.30;99.90;;;;;;5033507;28;20202;-66
2022/08/19 08:57:47;;;;;;;31.60;22.05;;;23.30;99.90;;;;;;5034011;28;20183;-65
2022/08/19 09:00:34;;;;;;;30.15;22.70;;;23.50;99.90;;;;;;5033876;28;20179;-65
2022/08/19 09:03:01;;;;;;;30.60;20.30;;;23.60;99.90;;;;;;5033886;28;20271;-65
2022/08/19 09:05:54;;;;;;;26.00;21.02;;;23.70;99.90;;;;;;5033508;28;20176;-67
2022/08/19 09:08:31;;;;;;;28.20;20.63;;;23.70;99.90;;;;;;5033826;28;20168;-65
2022/08/19 09:10:57;;;;;;;25.08;20.40;;;23.80;99.90;;;;;;5033596;28;20187;-65
2022/08/19 09:13:49;;;;;;;25.90;20.20;;;23.90;99.90;;;;;;5033444;28;20195;-65
2022/08/19 09:16:20;;;;;;;24.23;18.85;;;24.00;99.90;;;;;;5033650;28;20203;-65
2022/08/19 09:18:52;;;;;;;23.55;17.88;;;24.10;99.90;;;;;;5033929;28;20198;-64
2022/08/19 09:21:18;;;;;;;22.25;18.50;;;24.40;99.90;;;;;;5032682;28;20167;-65
2022/08/19 09:23:44;;;;;;;24.23;17.48;;;24.50;99.90;;;;;;5033115;28;20191;-65
2022/08/19 09:26:13;;;;;;;25.58;19.85;;;24.60;99.90;;;;;;5033421;28;20180;-65
2022/08/19 09:28:43;;;;;;;20.45;16.17;;;24.80;99.90;;;;;;5033480;28;20180;-66
2022/08/19 09:31:14;;;;;;;20.67;16.17;;;25.00;99.90;;;;;;5033433;28;20172;-65
2022/08/19 09:33:43;;;;;;;18.27;15.88;;;25.40;99.90;;;;;;5032958;28;20206;-66
2022/08/19 09:36:12;;;;;;;18.05;15.75;;;26.00;99.90;;;;;;5033208;28;20199;-64
2022/08/19 09:38:41;;;;;;;18.52;13.63;;;26.80;99.90;;;;;;5033318;28;20179;-65
2022/08/19 09:41:13;;;;;;;17.20;14.60;;;27.40;99.90;;;;;;5033160;28;20168;-65
2022/08/19 09:43:39;;;;;;;13.60;12.30;;;27.90;99.90;;;;;;5032672;28;20199;-65
2022/08/19 09:46:08;;;;;;;17.83;15.00;;;28.30;99.90;;;;;;5033109;28;20184;-64
2022/08/19 09:48:35;;;;;;;16.52;13.32;;;28.90;99.90;;;;;;5033063;28;20167;-65
2022/08/19 09:51:07;;;;;;;14.77;12.82;;;29.20;99.90;;;;;;5033103;28;20183;-66
2022/08/19 09:53:34;;;;;;;14.85;13.25;;;29.40;99.90;;;;;;5032554;28;20716;-66
2022/08/19 09:56:01;;;;;;;15.23;12.57;;;29.90;99.90;;;;;;5032909;28;20233;-66
2022/08/19 09:58:27;;;;;;;15.18;12.93;;;30.10;99.90;;;;;;5032855;28;20657;-66
2022/08/19 10:00:58;;;;;;;14.75;12.15;;;29.50;99.90;;;;;;5032944;28;20704;-65
2022/08/19 10:03:24;;;;;;;13.63;11.98;;;29.40;99.90;;;;;;5032609;28;20687;-66
2022/08/19 10:05:50;;;;;;;17.83;13.35;;;29.00;99.90;;;;;;5032625;28;20180;-65
2022/08/19 10:08:25;;;;;;;15.45;13.68;;;28.40;99.90;;;;;;5032675;28;20592;-65
2022/08/19 10:10:51;;;;;;;14.98;12.90;;;28.10;99.90;;;;;;5032680;28;20178;-66
2022/08/19 10:13:23;;;;;;;15.80;12.73;;;28.50;99.90;;;;;;5032488;28;20191;-65
2022/08/19 10:15:50;;;;;;;17.73;14.50;;;28.80;99.90;;;;;;5032606;28;20711;-65
2022/08/19 10:18:18;;;;;;;15.20;13.70;;;28.60;99.90;;;;;;5032848;28;20683;-65
2022/08/19 10:20:45;;;;;;;15.27;13.50;;;28.50;99.90;;;;;;5032611;28;20172;-65
2022/08/19 10:23:12;;;;;;;20.92;13.90;;;28.10;99.90;;;;;;5031716;28;20196;-66
2022/08/19 10:25:37;;;;;;;17.30;15.43;;;28.00;99.90;;;;;;5032057;28;20313;-65
2022/08/19 10:28:04;;;;;;;19.75;15.60;;;27.90;99.90;;;;;;5032585;28;20262;-66
2022/08/19 10:30:29;;;;;;;15.57;13.93;;;27.90;99.90;;;;;;5031924;28;20783;-67
2022/08/19 10:32:55;;;;;;;15.30;13.68;;;28.00;99.90;;;;;;5030245;28;20290;-66
2022/08/19 10:35:20;;;;;;;15.95;13.38;;;28.10;99.90;;;;;;5031422;28;20208;-66
2022/08/19 10:37:46;;;;;;;18.73;14.27;;;27.90;99.90;;;;;;5032034;28;20175;-66
2022/08/19 10:40:12;;;;;;;14.00;12.25;;;27.90;99.90;;;;;;5031676;28;20190;-66
2022/08/19 10:42:38;;;;;;;15.60;13.45;;;27.90;99.90;;;;;;5032507;28;20222;-67
2022/08/19 10:45:05;;;;;;;16.85;15.27;;;28.20;99.90;;;;;;5030825;28;20183;-64
2022/08/19 10:47:32;;;;;;;17.83;14.65;;;28.80;99.90;;;;;;5031926;28;20258;-67
2022/08/19 10:52:45;;;;;;;15.80;12.07;;;29.80;99.90;;;;;;5031622;28;20210;-66
2022/08/19 10:57:56;;;;;;;15.40;12.02;;;29.30;99.90;;;;;;5031764;28;20216;-66
2022/08/19 11:00:23;;;;;;;12.75;10.57;;;29.30;99.90;;;;;;5031240;28;20179;-67
2022/08/19 11:02:49;;;;;;;12.30;10.48;;;29.80;99.90;;;;;;5031908;28;20558;-67
2022/08/19 11:05:15;;;;;;;12.95;9.77;;;30.20;99.90;;;;;;5030976;28;20190;-67
2022/08/19 11:07:41;;;;;;;11.35;10.25;;;30.30;99.90;;;;;;5031201;28;20183;-66
2022/08/19 11:10:09;;;;;;;13.30;9.88;;;30.40;99.90;;;;;;5031691;28;20519;-67
2022/08/19 11:12:38;;;;;;;10.15;9.23;;;30.20;99.90;;;;;;5031263;28;20199;-65
2022/08/19 11:15:10;;;;;;;8.40;7.70;;;30.20;99.90;;;;;;5031322;28;20731;-64
2022/08/19 11:17:38;;;;;;;12.45;8.95;;;30.70;99.90;;;;;;5031366;28;20172;-66
2022/08/19 11:20:05;;;;;;;9.60;8.70;;;31.30;99.90;;;;;;5031533;28;20195;-67
2022/08/19 11:22:31;;;;;;;10.00;8.82;;;31.30;99.90;;;;;;5031053;28;20172;-67
2022/08/19 11:24:56;;;;;;;11.35;9.52;;;30.90;99.90;;;;;;5031210;28;20186;-65
2022/08/19 11:27:22;;;;;;;11.77;9.52;;;31.10;99.90;;;;;;5031294;28;20179;-65
2022/08/19 11:29:48;;;;;;;10.52;9.43;;;31.60;99.90;;;;;;5031001;28;20179;-66
2022/08/19 11:32:14;;;;;;;10.48;8.98;;;32.10;99.90;;;;;;5031570;28;20646;-67
2022/08/19 11:34:40;;;;;;;9.95;8.95;;;32.60;99.90;;;;;;5032874;28;20199;-65
2022/08/19 11:37:06;;;;;;;10.07;9.07;;;32.70;99.90;;;;;;5035399;28;20175;-65
2022/08/19 11:39:33;;;;;;;12.25;8.25;;;32.70;99.90;;;;;;5034944;28;20179;-67
2022/08/19 11:42:01;;;;;;;11.38;8.98;;;32.60;99.90;;;;;;5035309;28;20573;-65
2022/08/19 11:44:27;;;;;;;14.43;10.05;;;32.60;99.90;;;;;;5034812;28;20663;-64
2022/08/19 11:46:53;;;;;;;10.27;8.45;;;32.80;99.90;;;;;;5034006;28;20637;-66
2022/08/19 11:49:20;;;;;;;12.80;9.27;;;33.20;99.90;;;;;;5034906;28;20187;-65
2022/08/19 11:51:48;;;;;;;10.55;9.45;;;33.60;99.90;;;;;;5034645;28;20831;-65
2022/08/19 11:54:15;;;;;;;10.70;9.63;;;33.20;99.90;;;;;;5034632;28;20553;-67
2022/08/19 11:56:42;;;;;;;10.88;9.57;;;32.70;99.90;;;;;;5034958;28;20564;-66
2022/08/19 11:59:07;;;;;;;11.95;10.70;;;32.30;99.90;;;;;;5034008;28;20229;-67
2022/08/19 12:01:33;;;;;;;10.02;8.93;;;31.80;99.90;;;;;;5034687;28;20180;-65
2022/08/19 12:03:59;;;;;;;11.20;10.07;;;32.10;99.90;;;;;;5034616;28;20278;-67
2022/08/19 12:06:31;;;;;;;10.68;9.57;;;32.20;99.90;;;;;;5034636;28;20210;-65
2022/08/19 12:08:59;;;;;;;14.05;12.07;;;32.20;99.90;;;;;;5035004;28;20194;-66
2022/08/19 12:11:25;;;;;;;11.32;10.32;;;31.30;99.90;;;;;;5033998;28;20189;-65
2022/08/19 12:13:51;;;;;;;13.10;9.38;;;30.80;99.90;;;;;;5034293;28;20238;-67
2022/08/19 12:16:20;;;;;;;10.77;9.77;;;30.80;99.90;;;;;;5034549;28;20242;-66
2022/08/19 12:18:46;;;;;;;11.23;9.73;;;30.90;99.90;;;;;;5034791;28;20538;-67
2022/08/19 12:21:13;;;;;;;11.70;9.50;;;30.90;99.90;;;;;;5034115;28;20206;-67
2022/08/19 12:23:41;;;;;;;10.30;9.40;;;31.00;99.90;;;;;;5033025;28;20578;-68
2022/08/19 12:26:08;;;;;;;10.18;9.13;;;31.00;99.90;;;;;;5034217;28;20266;-67
2022/08/19 12:28:34;;;;;;;10.10;9.18;;;31.20;99.90;;;;;;5033538;28;20179;-66
2022/08/19 12:30:59;;;;;;;8.45;7.65;;;31.50;99.90;;;;;;5034265;28;20179;-67
2022/08/19 12:33:27;;;;;;;9.50;8.50;;;32.20;99.90;;;;;;5033907;28;20211;-67
2022/08/19 12:35:53;;;;;;;9.68;8.68;;;32.80;99.90;;;;;;5033205;28;20207;-67
2022/08/19 12:38:19;;;;;;;8.55;7.65;;;33.00;99.90;;;;;;5034144;28;20167;-67
2022/08/19 12:40:47;;;;;;;9.57;8.63;;;33.00;99.90;;;;;;5033960;28;20194;-68
2022/08/19 12:43:13;;;;;;;11.40;8.18;;;33.20;99.90;;;;;;5033783;28;20199;-67
2022/08/19 12:45:39;;;;;;;8.90;8.00;;;33.50;99.90;;;;;;5036958;28;20642;-66
2022/08/19 12:48:04;;;;;;;9.73;8.55;;;33.80;99.90;;;;;;5046714;28;20471;-68
2022/08/19 12:50:30;;;;;;;11.20;8.55;;;33.60;99.90;;;;;;5033967;28;20171;-67
2022/08/19 12:52:57;;;;;;;11.30;8.40;;;32.90;99.90;;;;;;5033702;28;20199;-66
2022/08/19 12:55:24;;;;;;;11.13;8.93;;;32.40;99.90;;;;;;5033424;28;20210;-67